| time (UTC) | temp C | wind direction | speed KPH | gust KPH | rain 1hr cm | rain 24hr cm | rain mn cm | humidity % | barometer mb |
| 20260510045300 | 24 | 173 | 1.6 | 8.0 | 0.00 | 0.00 | 0.00 | 76 | 1011.6 |
| 20260510044229 | 24 | 183 | 3.2 | 12.9 | 0.00 | 0.00 | 0.00 | 76 | 1011.6 |
| 20260510043238 | 24 | 159 | 4.8 | 16.1 | 0.00 | 0.00 | 0.00 | 76 | 1011.4 |
| 20260510042226 | 24 | 51 | 3.2 | 8.0 | 0.00 | 0.00 | 0.00 | 77 | 1011.5 |
| 20260510041232 | 24 | 56 | 1.6 | 9.7 | 0.00 | 0.00 | 0.00 | 76 | 1011.7 |
| 20260510040226 | 24 | 101 | 3.2 | 11.3 | 0.00 | 0.00 | 0.00 | 75 | 1011.8 |
| 20260510035233 | 24 | 75 | 4.8 | 14.5 | 0.00 | 0.00 | 0.00 | 73 | 1011.8 |
| 20260510034238 | 24 | 74 | 3.2 | 12.9 | 0.00 | 0.00 | 0.00 | 71 | 1011.7 |
| 20260510033232 | 24 | 59 | 4.8 | 12.9 | 0.00 | 0.00 | 0.00 | 71 | 1011.5 |
| 20260510032239 | 25 | 65 | 1.6 | 8.0 | 0.00 | 0.00 | 0.00 | 70 | 1011.2 |
| 20260510031225 | 25 | 63 | 3.2 | 16.1 | 0.00 | 0.00 | 0.00 | 71 | 1010.8 |
| 20260510030234 | 25 | 197 | 0.0 | 1.6 | 0.00 | 0.00 | 0.00 | 71 | 1010.4 |
| 20260510025245 | 25 | 197 | 0.0 | 4.8 | 0.00 | 0.00 | 0.00 | 71 | 1010.1 |
| 20260510024231 | 25 | 197 | 1.6 | 8.0 | 0.00 | 0.00 | 0.00 | 70 | 1010.0 |
| 20260510023239 | 25 | 185 | 1.6 | 12.9 | 0.00 | 0.00 | 0.00 | 69 | 1009.9 |
| 20260510022228 | 25 | 215 | 3.2 | 12.9 | 0.00 | 0.00 | 0.00 | 68 | 1009.8 |
| 20260510021257 | 25 | 179 | 6.4 | 22.5 | 0.00 | 0.00 | 0.00 | 69 | 1009.9 |
| 20260510020227 | 25 | 167 | 6.4 | 11.3 | 0.00 | 0.00 | 0.00 | 65 | 1009.8 |
| 20260510015234 | 25 | 168 | 4.8 | 16.1 | 0.00 | 0.00 | 0.00 | 64 | 1009.6 |
| 20260510014239 | 26 | 117 | 4.8 | 11.3 | 0.00 | 0.00 | 0.00 | 66 | 1009.4 |
| 20260510013247 | 26 | 104 | 4.8 | 12.9 | 0.00 | 0.00 | 0.00 | 64 | 1009.4 |
| 20260510012258 | 27 | 169 | 3.2 | 8.0 | 0.00 | 0.00 | 0.00 | 63 | 1009.3 |
| 20260510011224 | 27 | 73 | 3.2 | 4.8 | 0.00 | 0.00 | 0.00 | 61 | 1009.1 |
| 20260510010234 | 28 | 57 | 0.0 | 3.2 | 0.00 | 0.00 | 0.00 | 62 | 1008.9 |
| 20260510005242 | 28 | 57 | 3.2 | 11.3 | 0.00 | 0.00 | 0.00 | 63 | 1009.0 |
| 20260510004232 | 28 | 43 | 0.0 | 1.6 | 0.00 | 0.00 | 0.00 | 72 | 1009.0 |
| 20260510003242 | 28 | 43 | 0.0 | 3.2 | 0.00 | 0.00 | 0.00 | 70 | 1008.8 |
| 20260510002229 | 29 | 47 | 0.0 | 0.0 | 0.00 | 0.00 | 0.00 | 71 | 1008.9 |
| 20260510001235 | 29 | 46 | 0.0 | 0.0 | 0.00 | 0.00 | 0.00 | 70 | 1008.5 |
| 20260510000248 | 29 | 46 | 1.6 | 3.2 | 0.00 | 0.00 | 0.00 | 70 | 1008.3 |
| 20260509235253 | 29 | 46 | 0.0 | 0.0 | 0.00 | 0.00 | 0.00 | 70 | 1008.2 |
| 20260509234239 | 29 | 46 | 1.6 | 3.2 | 0.00 | 0.00 | 0.00 | 71 | 1008.1 |
| 20260509233228 | 29 | 46 | 0.0 | 0.0 | 0.00 | 0.00 | 0.00 | 71 | 1008.5 |
| 20260509232240 | 29 | 46 | 0.0 | 3.2 | 0.00 | 0.00 | 0.00 | 71 | 1008.5 |
| 20260509231227 | 29 | 46 | 0.0 | 1.6 | 0.00 | 0.00 | 0.00 | 71 | 1008.4 |
| 20260509230255 | 29 | 46 | 0.0 | 1.6 | 0.00 | 0.00 | 0.00 | 70 | 1008.2 |
| 20260509225241 | 29 | 46 | 0.0 | 0.0 | 0.00 | 0.00 | 0.00 | 69 | 1008.5 |
| 20260509224232 | 29 | 46 | 0.0 | 3.2 | 0.00 | 0.00 | 0.00 | 70 | 1008.3 |
| 20260509223240 | 30 | 46 | 0.0 | 3.2 | 0.00 | 0.00 | 0.00 | 69 | 1008.0 |
| 20260509222228 | 30 | 46 | 0.0 | 3.2 | 0.00 | 0.00 | 0.00 | 69 | 1008.4 |
| 20260509221234 | 30 | 61 | 0.0 | 6.4 | 0.00 | 0.00 | 0.00 | 69 | 1008.0 |
| 20260509220228 | 30 | 13 | 1.6 | 4.8 | 0.00 | 0.00 | 0.00 | 69 | 1007.9 |
| 20260509215235 | 30 | 13 | 0.0 | 1.6 | 0.00 | 0.00 | 0.00 | 67 | 1008.1 |
| 20260509214242 | 30 | 13 | 1.6 | 3.2 | 0.00 | 0.00 | 0.00 | 66 | 1008.0 |
| 20260509213231 | 30 | 11 | 0.0 | 3.2 | 0.00 | 0.00 | 0.00 | 67 | 1008.1 |
| 20260509212241 | 30 | 11 | 1.6 | 3.2 | 0.00 | 0.00 | 0.00 | 67 | 1008.1 |
| 20260509211228 | 31 | 12 | 0.0 | 4.8 | 0.00 | 0.00 | 0.00 | 68 | 1008.2 |
| 20260509210236 | 31 | 29 | 1.6 | 6.4 | 0.00 | 0.00 | 0.00 | 69 | 1008.1 |
| 20260509205225 | 31 | 232 | 0.0 | 3.2 | 0.00 | 0.00 | 0.00 | 65 | 1008.4 |
| 20260509204234 | 31 | 232 | 1.6 | 3.2 | 0.00 | 0.00 | 0.00 | 63 | 1008.6 |
| 20260509203302 | 31 | 233 | 1.6 | 4.8 | 0.00 | 0.00 | 0.00 | 62 | 1008.7 |
| 20260509202229 | 31 | 8 | 1.6 | 6.4 | 0.00 | 0.00 | 0.00 | 65 | 1008.8 |
| 20260509201236 | 31 | 8 | 1.6 | 9.7 | 0.00 | 0.00 | 0.00 | 67 | 1008.8 |
| 20260509200229 | 31 | 33 | 1.6 | 4.8 | 0.00 | 0.00 | 0.00 | 67 | 1008.9 |
| 20260509195237 | 30 | 334 | 1.6 | 4.8 | 0.00 | 0.00 | 0.00 | 66 | 1009.1 |
| 20260509194303 | 30 | 180 | 4.8 | 8.0 | 0.00 | 0.00 | 0.00 | 69 | 1009.1 |
| 20260509193227 | 30 | 158 | 0.0 | 4.8 | 0.00 | 0.00 | 0.00 | 69 | 1009.4 |
| 20260509192234 | 30 | 180 | 0.0 | 4.8 | 0.00 | 0.00 | 0.00 | 69 | 1009.4 |
| 20260509191238 | 31 | 178 | 3.2 | 6.4 | 0.00 | 0.00 | 0.00 | 66 | 1009.4 |
| 20260509190224 | 30 | 177 | 3.2 | 9.7 | 0.00 | 0.00 | 0.00 | 69 | 1009.6 |
| 20260509185229 | 30 | 173 | 0.0 | 6.4 | 0.00 | 0.00 | 0.00 | 70 | 1009.6 |
| 20260509184236 | 30 | 173 | 1.6 | 8.0 | 0.00 | 0.00 | 0.00 | 71 | 1009.7 |
| 20260509183301 | 30 | 233 | 3.2 | 8.0 | 0.00 | 0.00 | 0.00 | 70 | 1009.8 |
| 20260509182242 | 30 | 158 | 0.0 | 12.9 | 0.00 | 0.00 | 0.00 | 72 | 1009.8 |
| 20260509181225 | 30 | 170 | 3.2 | 12.9 | 0.00 | 0.00 | 0.00 | 73 | 1009.9 |
| 20260509180230 | 29 | 179 | 3.2 | 8.0 | 0.00 | 0.00 | 0.00 | 72 | 1010.1 |
| 20260509175239 | 29 | 193 | 6.4 | 11.3 | 0.00 | 0.00 | 0.00 | 74 | 1010.5 |
| 20260509174240 | 28 | 165 | 4.8 | 12.9 | 0.00 | 0.00 | 0.00 | 76 | 1010.6 |
| 20260509173242 | 28 | 245 | 3.2 | 11.3 | 0.00 | 0.00 | 0.00 | 76 | 1010.8 |
| 20260509172227 | 28 | 176 | 3.2 | 12.9 | 0.00 | 0.00 | 0.00 | 77 | 1011.0 |
| 20260509171234 | 28 | 164 | 4.8 | 12.9 | 0.00 | 0.00 | 0.00 | 77 | 1011.0 |
| 20260509170241 | 27 | 212 | 6.4 | 11.3 | 0.00 | 0.00 | 0.00 | 77 | 1010.8 |
| 20260509165244 | 27 | 200 | 1.6 | 6.4 | 0.00 | 0.00 | 0.00 | 77 | 1010.8 |
| 20260509164227 | 27 | 177 | 0.0 | 4.8 | 0.00 | 0.00 | 0.00 | 79 | 1010.9 |
| 20260509163235 | 27 | 25 | 0.0 | 3.2 | 0.00 | 0.00 | 0.00 | 82 | 1010.8 |
| 20260509162259 | 27 | 25 | 0.0 | 3.2 | 0.00 | 0.00 | 0.00 | 83 | 1010.8 |
| 20260509161259 | 26 | 25 | 0.0 | 3.2 | 0.00 | 0.00 | 0.00 | 85 | 1011.0 |
| 20260509160225 | 26 | 25 | 0.0 | 3.2 | 0.00 | 0.00 | 0.00 | 86 | 1011.1 |
| 20260509155230 | 26 | 25 | 0.0 | 3.2 | 0.00 | 0.00 | 0.00 | 87 | 1011.1 |
| 20260509154238 | 25 | 25 | 0.0 | 4.8 | 0.00 | 0.00 | 0.00 | 88 | 1011.2 |
| 20260509153242 | 25 | 113 | 0.0 | 1.6 | 0.00 | 0.00 | 0.00 | 88 | 1011.1 |
| 20260509152225 | 25 | 83 | 0.0 | 3.2 | 0.00 | 0.00 | 0.00 | 88 | 1011.0 |
| 20260509151228 | 25 | 89 | 1.6 | 3.2 | 0.00 | 0.00 | 0.00 | 89 | 1010.9 |
| 20260509150237 | 25 | 89 | 1.6 | 6.4 | 0.00 | 0.00 | 0.00 | 89 | 1010.8 |
| 20260509145243 | 25 | 177 | 0.0 | 3.2 | 0.00 | 0.00 | 0.00 | 90 | 1010.6 |
| 20260509144224 | 25 | 177 | 0.0 | 4.8 | 0.00 | 0.00 | 0.00 | 91 | 1010.2 |
| 20260509143229 | 25 | 178 | 0.0 | 1.6 | 0.00 | 0.00 | 0.00 | 91 | 1010.1 |
| 20260509142237 | 24 | 178 | 0.0 | 3.2 | 0.00 | 0.00 | 0.00 | 91 | 1010.0 |
| 20260509141300 | 24 | 177 | 0.0 | 1.6 | 0.00 | 0.00 | 0.00 | 92 | 1009.8 |
| 20260509140225 | 24 | 178 | 0.0 | 6.4 | 0.00 | 0.00 | 0.00 | 92 | 1010.0 |
| 20260509135229 | 24 | 178 | 1.6 | 6.4 | 0.00 | 0.00 | 0.00 | 92 | 1010.3 |
| 20260509134233 | 24 | 177 | 1.6 | 4.8 | 0.00 | 0.00 | 0.00 | 93 | 1010.1 |
| 20260509133224 | 24 | 178 | 0.0 | 6.4 | 0.00 | 0.00 | 0.00 | 93 | 1010.5 |
| 20260509132232 | 24 | 178 | 3.2 | 8.0 | 0.00 | 0.00 | 0.00 | 93 | 1010.7 |
| 20260509131238 | 24 | 164 | 3.2 | 8.0 | 0.00 | 0.00 | 0.00 | 93 | 1010.6 |
| 20260509130230 | 23 | 165 | 3.2 | 6.4 | 0.00 | 0.00 | 0.00 | 94 | 1010.9 |
| 20260509125239 | 23 | 178 | 0.0 | 3.2 | 0.00 | 0.00 | 0.00 | 94 | 1011.0 |
| 20260509124225 | 23 | 178 | 1.6 | 6.4 | 0.00 | 0.00 | 0.00 | 94 | 1010.9 |
| 20260509123234 | 23 | 102 | 1.6 | 3.2 | 0.00 | 0.00 | 0.00 | 94 | 1011.0 |
| 20260509122226 | 23 | 102 | 0.0 | 1.6 | 0.00 | 0.00 | 0.00 | 94 | 1010.6 |
| 20260509121232 | 23 | 102 | 0.0 | 1.6 | 0.00 | 0.00 | 0.00 | 94 | 1010.7 |
| 20260509120241 | 23 | 102 | 0.0 | 1.6 | 0.00 | 0.00 | 0.00 | 94 | 1011.1 |
| 20260509115229 | 23 | 102 | 0.0 | 0.0 | 0.00 | 0.00 | 0.00 | 94 | 1010.9 |
| 20260509114240 | 23 | 102 | 0.0 | 3.2 | 0.00 | 0.00 | 0.00 | 94 | 1010.8 |
| 20260509113228 | 23 | 160 | 0.0 | 0.0 | 0.00 | 0.00 | 0.00 | 94 | 1010.8 |
| 20260509112236 | 23 | 160 | 0.0 | 1.6 | 0.00 | 0.00 | 0.00 | 94 | 1010.9 |
| 20260509111242 | 23 | 160 | 0.0 | 0.0 | 0.00 | 0.00 | 0.00 | 94 | 1010.5 |
| 20260509110255 | 23 | 160 | 0.0 | 0.0 | 0.00 | 0.00 | 0.00 | 94 | 1010.2 |
| 20260509105242 | 23 | 160 | 0.0 | 0.0 | 0.00 | 0.00 | 0.00 | 94 | 1010.4 |
| 20260509104229 | 23 | 160 | 1.6 | 4.8 | 0.00 | 0.00 | 0.00 | 94 | 1010.2 |
| 20260509103237 | 23 | 156 | 3.2 | 8.0 | 0.00 | 0.00 | 0.00 | 94 | 1009.9 |
| 20260509102249 | 23 | 90 | 3.2 | 6.4 | 0.00 | 0.00 | 0.00 | 94 | 1010.1 |
| 20260509101234 | 23 | 90 | 0.0 | 1.6 | 0.00 | 0.00 | 0.00 | 94 | 1010.2 |
| 20260509100242 | 23 | 90 | 0.0 | 0.0 | 0.00 | 0.00 | 0.00 | 94 | 1010.1 |
| 20260509095229 | 23 | 90 | 0.0 | 0.0 | 0.00 | 0.00 | 0.00 | 94 | 1009.9 |
| 20260509094239 | 23 | 90 | 0.0 | 0.0 | 0.00 | 0.00 | 0.00 | 94 | 1009.7 |
| 20260509093228 | 23 | 90 | 0.0 | 0.0 | 0.00 | 0.00 | 0.00 | 94 | 1009.7 |
| 20260509092236 | 23 | 90 | 0.0 | 0.0 | 0.00 | 0.00 | 0.00 | 94 | 1009.7 |
| 20260509091243 | 23 | 90 | 0.0 | 0.0 | 0.00 | 0.00 | 0.00 | 94 | 1009.8 |
| 20260509090236 | 23 | 90 | 0.0 | 0.0 | 0.00 | 0.00 | 0.00 | 94 | 1010.0 |
| 20260509085224 | 23 | 90 | 0.0 | 0.0 | 0.00 | 0.00 | 0.00 | 94 | 1010.2 |
| 20260509084231 | 23 | 90 | 0.0 | 3.2 | 0.00 | 0.00 | 0.00 | 94 | 1010.2 |
| 20260509083239 | 23 | 90 | 1.6 | 3.2 | 0.00 | 0.00 | 0.00 | 94 | 1010.1 |
| 20260509082232 | 23 | 90 | 1.6 | 6.4 | 0.00 | 0.00 | 0.00 | 94 | 1010.2 |
| 20260509081259 | 23 | 90 | 1.6 | 3.2 | 0.00 | 0.00 | 0.00 | 94 | 1010.2 |
| 20260509080226 | 23 | 90 | 0.0 | 1.6 | 0.00 | 0.00 | 0.00 | 94 | 1010.1 |
| 20260509075234 | 23 | 89 | 0.0 | 3.2 | 0.00 | 0.00 | 0.00 | 94 | 1010.1 |
| 20260509074242 | 23 | 96 | 1.6 | 11.3 | 0.00 | 0.00 | 0.00 | 94 | 1009.8 |
| 20260509073232 | 23 | 177 | 3.2 | 11.3 | 0.00 | 0.00 | 0.00 | 94 | 1009.7 |
| 20260509072239 | 23 | 190 | 1.6 | 9.7 | 0.00 | 0.00 | 0.00 | 94 | 1009.9 |
| 20260509071224 | 23 | 145 | 1.6 | 12.9 | 0.00 | 0.00 | 0.00 | 94 | 1009.8 |
| 20260509070257 | 23 | 159 | 1.6 | 8.0 | 0.00 | 0.00 | 0.00 | 93 | 1009.6 |
| 20260509065244 | 23 | 133 | 4.8 | 12.9 | 0.00 | 0.00 | 0.00 | 93 | 1009.8 |
| 20260509064231 | 23 | 120 | 1.6 | 8.0 | 0.00 | 0.00 | 0.00 | 93 | 1010.0 |
| 20260509063239 | 23 | 161 | 1.6 | 8.0 | 0.00 | 0.00 | 0.00 | 93 | 1010.1 |
| 20260509062231 | 23 | 157 | 1.6 | 6.4 | 0.00 | 0.00 | 0.00 | 92 | 1010.4 |
| 20260509061257 | 23 | 161 | 1.6 | 4.8 | 0.00 | 0.00 | 0.00 | 92 | 1010.5 |
| 20260509060304 | 23 | 108 | 1.6 | 8.0 | 0.00 | 0.00 | 0.00 | 91 | 1010.6 |
| 20260509055231 | 23 | 206 | 1.6 | 6.4 | 0.00 | 0.00 | 0.00 | 91 | 1010.6 |
| 20260509054238 | 23 | 191 | 1.6 | 8.0 | 0.00 | 0.00 | 0.00 | 91 | 1010.5 |
| 20260509053230 | 23 | 164 | 0.0 | 6.4 | 0.00 | 0.00 | 0.00 | 91 | 1010.6 |
| 20260509052238 | 23 | 85 | 1.6 | 4.8 | 0.00 | 0.00 | 0.00 | 91 | 1010.7 |
| 20260509051223 | 23 | 66 | 0.0 | 1.6 | 0.00 | 0.00 | 0.00 | 91 | 1010.7 |
| 20260509050237 | 23 | 67 | 0.0 | 4.8 | 0.00 | 0.00 | 0.00 | 91 | 1010.7 |